Time;durP1;ratioP1;P1;durP2;ratioP2;P2;SDS_P1;SDS_P2;PMS_P1;PMS_P2;Temp;Humidity;BMP_temperature;BMP_pressure;BME280_temperature;BME280_humidity;BME280_pressure;Samples;Min_cycle;Max_cycle;Signal;HPM_P1;HPM_P2
2023/04/22 00:01:14;;;;;;;6.20;4.03;;;5.70;99.90;;;;;;4433182;28;658064;-68
2023/04/22 00:04:02;;;;;;;7.07;3.93;;;5.60;99.90;;;;;;4427896;28;657334;-68
2023/04/22 00:06:49;;;;;;;8.70;4.10;;;5.60;99.90;;;;;;4459022;28;657743;-67
2023/04/22 00:09:37;;;;;;;13.33;3.90;;;5.60;99.90;;;;;;4422096;28;657277;-67
2023/04/22 00:12:24;;;;;;;6.67;3.70;;;5.60;99.90;;;;;;4450371;28;659788;-68
2023/04/22 00:15:11;;;;;;;8.30;4.30;;;5.60;99.90;;;;;;4422223;28;658002;-69
2023/04/22 00:17:59;;;;;;;10.20;4.57;;;5.60;99.90;;;;;;4380549;28;657865;-69
2023/04/22 00:20:47;;;;;;;8.43;4.07;;;5.50;99.90;;;;;;4241511;28;658549;-69
2023/04/22 00:23:34;;;;;;;12.40;3.83;;;5.50;99.90;;;;;;4304747;28;658736;-68
2023/04/22 00:26:22;;;;;;;8.07;3.90;;;5.50;99.90;;;;;;4426024;28;658902;-68
2023/04/22 00:29:09;;;;;;;8.73;3.63;;;5.50;99.90;;;;;;4456459;28;658366;-67
2023/04/22 00:31:56;;;;;;;8.33;3.83;;;5.50;99.90;;;;;;4437499;28;658225;-68
2023/04/22 00:34:43;;;;;;;7.63;4.07;;;5.50;99.90;;;;;;4461852;27;658484;-67
2023/04/22 00:37:32;;;;;;;7.17;3.93;;;5.40;99.90;;;;;;4432646;28;657756;-68
2023/04/22 00:40:20;;;;;;;6.47;3.80;;;5.40;99.90;;;;;;4446137;28;657588;-68
2023/04/22 00:43:07;;;;;;;9.00;3.90;;;5.40;99.90;;;;;;4429609;28;659102;-68
2023/04/22 00:45:54;;;;;;;7.57;3.60;;;5.40;99.90;;;;;;4459005;28;657402;-68
2023/04/22 00:48:41;;;;;;;5.90;3.53;;;5.40;99.90;;;;;;4430317;28;658257;-68
2023/04/22 00:51:29;;;;;;;7.83;3.83;;;5.40;99.90;;;;;;4447648;28;657547;-68
2023/04/22 00:54:17;;;;;;;13.17;3.67;;;5.40;99.90;;;;;;4426297;28;657406;-68
2023/04/22 00:57:05;;;;;;;6.33;3.33;;;5.30;99.90;;;;;;4453405;28;659110;-67
2023/04/22 00:59:52;;;;;;;8.40;3.50;;;5.30;99.90;;;;;;4424455;28;659176;-68
2023/04/22 01:02:39;;;;;;;9.00;3.40;;;5.20;99.90;;;;;;4434148;28;657859;-68
2023/04/22 01:05:26;;;;;;;8.43;3.57;;;5.20;99.90;;;;;;4421466;28;657991;-67
2023/04/22 01:08:13;;;;;;;9.50;3.77;;;5.20;99.90;;;;;;4447267;28;657497;-67
2023/04/22 01:11:02;;;;;;;7.50;3.67;;;5.10;99.90;;;;;;4436196;28;658374;-68
2023/04/22 01:13:49;;;;;;;7.10;3.67;;;5.10;99.90;;;;;;4449762;28;657715;-67
2023/04/22 01:16:37;;;;;;;10.00;3.97;;;5.10;99.90;;;;;;4430615;28;658117;-68
2023/04/22 01:19:24;;;;;;;7.03;3.63;;;5.10;99.90;;;;;;4449199;28;659096;-68
2023/04/22 01:22:12;;;;;;;7.50;4.07;;;5.10;99.90;;;;;;4441746;28;657891;-68
2023/04/22 01:25:00;;;;;;;6.93;4.00;;;5.00;99.90;;;;;;4440225;28;657544;-67
2023/04/22 01:27:48;;;;;;;6.93;4.17;;;5.00;99.90;;;;;;4414229;28;658748;-68
2023/04/22 01:30:35;;;;;;;7.57;4.03;;;5.00;99.90;;;;;;4427010;28;657893;-68
2023/04/22 01:33:22;;;;;;;9.00;4.10;;;4.90;99.90;;;;;;4461967;28;657805;-68
2023/04/22 01:36:10;;;;;;;7.70;3.80;;;4.90;99.90;;;;;;4438965;28;657579;-68
2023/04/22 01:38:57;;;;;;;11.07;4.30;;;4.80;99.90;;;;;;4414964;28;658656;-67
2023/04/22 01:41:47;;;;;;;6.53;3.77;;;4.80;99.90;;;;;;4446039;28;658695;-68
2023/04/22 01:44:34;;;;;;;9.50;4.17;;;4.80;99.90;;;;;;4456016;28;658105;-68
2023/04/22 01:47:21;;;;;;;9.73;4.37;;;4.80;99.90;;;;;;4435812;28;657387;-68
2023/04/22 01:50:09;;;;;;;7.83;4.40;;;4.70;99.90;;;;;;4451642;28;658297;-68
2023/04/22 01:52:57;;;;;;;9.20;4.83;;;4.70;99.90;;;;;;4421673;28;658507;-67
2023/04/22 01:55:44;;;;;;;9.37;4.70;;;4.70;99.90;;;;;;4460915;28;657686;-68
2023/04/22 01:58:34;;;;;;;7.63;4.30;;;4.60;99.90;;;;;;4430752;28;657474;-67
2023/04/22 02:01:21;;;;;;;7.47;4.40;;;4.60;99.90;;;;;;4417725;28;658108;-68
2023/04/22 02:04:08;;;;;;;9.80;4.03;;;4.60;99.90;;;;;;4446741;28;657919;-67
2023/04/22 02:06:56;;;;;;;10.17;3.70;;;4.60;99.90;;;;;;4428836;28;657646;-68
2023/04/22 02:09:43;;;;;;;8.47;4.30;;;4.60;99.90;;;;;;4441411;28;658170;-68
2023/04/22 02:12:31;;;;;;;5.80;3.43;;;4.60;99.90;;;;;;4431454;28;657856;-68
2023/04/22 02:15:19;;;;;;;9.97;3.90;;;4.60;1.00;;;;;;4451722;28;658384;-68
2023/04/22 02:18:08;;;;;;;7.20;3.63;;;4.60;1.00;;;;;;4251968;28;656903;-69
2023/04/22 02:20:56;;;;;;;8.97;4.67;;;4.60;1.00;;;;;;4245724;28;656425;-69
2023/04/22 02:23:43;;;;;;;12.93;3.85;;;4.50;1.00;;;;;;4385141;28;657448;-68
2023/04/22 02:26:30;;;;;;;10.10;4.13;;;4.50;99.90;;;;;;4423452;28;657535;-68
2023/04/22 02:29:17;;;;;;;9.25;3.70;;;4.50;1.00;;;;;;4455088;28;658648;-68
2023/04/22 02:32:06;;;;;;;5.37;3.47;;;4.50;1.00;;;;;;4445325;28;656236;-68
2023/04/22 02:34:53;;;;;;;7.67;4.00;;;4.50;99.90;;;;;;4419287;28;657634;-67
2023/04/22 02:37:40;;;;;;;10.27;3.97;;;4.50;1.00;;;;;;4430269;28;658466;-68
2023/04/22 02:40:28;;;;;;;5.10;3.37;;;4.40;1.00;;;;;;4443923;28;658411;-68
2023/04/22 02:43:15;;;;;;;9.43;4.20;;;4.40;1.00;;;;;;4429369;28;656392;-68
2023/04/22 02:46:02;;;;;;;7.53;3.93;;;4.40;1.00;;;;;;4460526;28;657776;-68
2023/04/22 02:48:51;;;;;;;10.83;3.87;;;4.40;1.00;;;;;;4451063;28;656221;-67
2023/04/22 02:51:38;;;;;;;11.80;4.50;;;4.40;1.00;;;;;;4427220;28;658170;-69
2023/04/22 02:54:26;;;;;;;8.93;4.20;;;4.40;1.00;;;;;;4424863;28;657858;-68
2023/04/22 02:57:13;;;;;;;13.90;4.03;;;4.40;1.00;;;;;;4460727;28;656453;-67
2023/04/22 03:00:01;;;;;;;9.33;4.07;;;4.30;1.00;;;;;;4442219;28;658700;-68
2023/04/22 03:02:48;;;;;;;9.70;4.33;;;4.30;1.00;;;;;;4460687;28;657276;-67
2023/04/22 03:05:36;;;;;;;9.63;4.50;;;4.30;1.00;;;;;;4420966;28;656666;-68
2023/04/22 03:08:24;;;;;;;6.17;3.73;;;4.30;1.00;;;;;;4441932;28;656692;-67
2023/04/22 03:11:12;;;;;;;7.90;4.07;;;4.30;1.00;;;;;;4437178;28;657369;-68
2023/04/22 03:14:00;;;;;;;8.40;4.57;;;4.30;1.00;;;;;;4453613;28;656878;-67
2023/04/22 03:16:47;;;;;;;13.13;5.60;;;4.30;1.00;;;;;;4433228;28;658240;-68
2023/04/22 03:19:35;;;;;;;15.98;6.85;;;4.30;1.00;;;;;;4452392;28;658896;-68
2023/04/22 03:22:23;;;;;;;18.00;6.90;;;4.30;1.00;;;;;;4414747;28;657996;-68
2023/04/22 03:25:11;;;;;;;15.43;5.67;;;4.20;1.00;;;;;;4429170;28;657882;-68
2023/04/22 03:27:58;;;;;;;8.97;4.77;;;4.20;1.00;;;;;;4443828;28;658250;-67
2023/04/22 03:30:46;;;;;;;13.53;5.67;;;4.20;1.00;;;;;;4427286;28;656087;-68
2023/04/22 03:33:33;;;;;;;12.20;5.30;;;4.20;1.00;;;;;;4439297;28;658518;-68
2023/04/22 03:36:20;;;;;;;15.73;5.77;;;4.10;1.00;;;;;;4435244;28;657921;-69
2023/04/22 03:39:09;;;;;;;12.37;5.03;;;4.10;1.00;;;;;;4449550;28;659035;-68
2023/04/22 03:41:56;;;;;;;9.20;4.83;;;4.10;1.00;;;;;;4427246;28;657426;-68
2023/04/22 03:44:43;;;;;;;13.50;5.07;;;4.10;1.00;;;;;;4442446;28;656976;-68
2023/04/22 03:47:31;;;;;;;12.03;5.00;;;4.10;1.00;;;;;;4426972;28;657838;-68
2023/04/22 03:50:18;;;;;;;9.57;5.07;;;4.10;1.00;;;;;;4446599;28;657707;-68
2023/04/22 03:53:05;;;;;;;10.00;4.73;;;4.10;1.00;;;;;;4435793;28;656364;-68
2023/04/22 03:55:54;;;;;;;12.33;5.17;;;4.10;1.00;;;;;;4456349;27;658315;-68
2023/04/22 03:58:41;;;;;;;11.47;5.40;;;4.10;1.00;;;;;;4429703;28;659254;-68
2023/04/22 04:01:28;;;;;;;9.67;5.03;;;4.10;1.00;;;;;;4451489;28;659660;-67
2023/04/22 04:04:15;;;;;;;11.40;5.63;;;4.20;1.00;;;;;;4428391;28;656501;-68
2023/04/22 04:07:03;;;;;;;9.17;4.90;;;4.20;1.00;;;;;;4451141;28;659121;-67
2023/04/22 04:09:50;;;;;;;8.53;4.80;;;4.20;1.00;;;;;;4447305;28;656855;-68
2023/04/22 04:12:39;;;;;;;10.88;4.78;;;4.20;1.00;;;;;;4457046;28;657573;-68
2023/04/22 04:15:26;;;;;;;10.07;4.47;;;4.30;1.00;;;;;;4428198;28;657496;-67
2023/04/22 04:18:13;;;;;;;11.40;5.03;;;4.30;1.00;;;;;;4448654;28;658721;-68
2023/04/22 04:21:01;;;;;;;14.73;5.33;;;4.30;1.00;;;;;;4431966;28;658167;-68
2023/04/22 04:23:48;;;;;;;11.73;4.67;;;4.40;1.00;;;;;;4446170;28;658128;-67
2023/04/22 04:26:36;;;;;;;16.57;5.07;;;4.40;1.00;;;;;;4435437;28;657473;-69
2023/04/22 04:29:25;;;;;;;8.87;4.40;;;4.40;1.00;;;;;;4455865;28;658430;-67
2023/04/22 04:32:13;;;;;;;12.85;4.78;;;4.40;1.00;;;;;;4424692;28;656831;-68
2023/04/22 04:35:01;;;;;;;12.50;4.53;;;4.50;1.00;;;;;;4446511;28;657745;-68
2023/04/22 04:37:49;;;;;;;8.60;4.60;;;4.60;1.00;;;;;;4456304;28;658380;-68
2023/04/22 04:40:37;;;;;;;11.00;4.83;;;4.60;1.00;;;;;;4435679;28;656553;-68
2023/04/22 04:43:25;;;;;;;10.60;4.87;;;4.70;1.00;;;;;;4449283;28;658016;-67
2023/04/22 04:46:15;;;;;;;9.50;4.90;;;4.80;1.00;;;;;;4427673;28;658726;-67
2023/04/22 04:49:03;;;;;;;13.38;5.00;;;4.90;1.00;;;;;;4429490;28;657589;-68
2023/04/22 04:51:50;;;;;;;9.93;4.97;;;5.00;1.00;;;;;;4434941;28;658010;-69
2023/04/22 04:54:37;;;;;;;10.30;4.57;;;5.10;1.00;;;;;;4450996;28;657422;-68
2023/04/22 04:57:25;;;;;;;11.23;4.87;;;5.30;1.00;;;;;;4449087;28;657668;-68
2023/04/22 05:00:13;;;;;;;12.50;5.00;;;5.40;1.00;;;;;;4445276;28;657549;-68
2023/04/22 05:03:02;;;;;;;12.40;5.50;;;5.50;1.00;;;;;;4439199;28;657846;-68
2023/04/22 05:05:49;;;;;;;9.07;5.23;;;5.70;1.00;;;;;;4442659;28;658138;-68
2023/04/22 05:08:36;;;;;;;9.40;5.00;;;5.80;1.00;;;;;;4431050;28;656632;-68
2023/04/22 05:11:23;;;;;;;9.70;5.00;;;5.90;1.00;;;;;;4449963;28;656476;-68
2023/04/22 05:14:11;;;;;;;13.67;4.70;;;6.00;1.00;;;;;;4422176;28;657436;-68
2023/04/22 05:16:58;;;;;;;17.43;5.00;;;6.20;1.00;;;;;;4438436;28;658323;-68
2023/04/22 05:19:47;;;;;;;10.40;5.17;;;6.30;1.00;;;;;;4425986;28;657797;-68
2023/04/22 05:22:34;;;;;;;11.10;4.97;;;6.50;1.00;;;;;;4433333;28;657644;-67
2023/04/22 05:25:22;;;;;;;10.43;5.20;;;6.80;1.00;;;;;;4421134;28;657523;-68
2023/04/22 05:28:09;;;;;;;8.93;5.07;;;6.90;1.00;;;;;;4436299;28;657712;-68
2023/04/22 05:30:56;;;;;;;10.77;4.93;;;7.20;1.00;;;;;;4418966;28;657220;-68
2023/04/22 05:33:43;;;;;;;8.60;4.57;;;7.40;1.00;;;;;;4442811;28;658338;-68
2023/04/22 05:36:32;;;;;;;12.50;5.03;;;7.60;1.00;;;;;;4419757;27;656584;-68
2023/04/22 05:39:19;;;;;;;10.20;5.37;;;7.90;1.00;;;;;;4428678;28;657072;-69
2023/04/22 05:42:07;;;;;;;15.77;5.50;;;8.20;1.00;;;;;;4421666;28;658099;-67
2023/04/22 05:44:55;;;;;;;16.90;5.30;;;8.50;1.00;;;;;;4439908;28;658741;-68
2023/04/22 05:47:42;;;;;;;12.07;5.47;;;8.80;99.90;;;;;;4440961;28;658725;-68
2023/04/22 05:50:30;;;;;;;8.53;5.10;;;9.10;99.90;;;;;;4435972;28;658317;-74
2023/04/22 05:53:18;;;;;;;10.90;5.77;;;9.30;99.90;;;;;;4420265;28;658612;-74
2023/04/22 05:56:06;;;;;;;11.67;6.57;;;9.60;99.90;;;;;;4420554;28;658750;-74
2023/04/22 05:58:53;;;;;;;15.73;6.90;;;9.80;99.90;;;;;;4433774;28;659267;-74
2023/04/22 06:01:40;;;;;;;13.27;7.20;;;10.10;99.90;;;;;;4421830;28;659157;-73
2023/04/22 06:04:27;;;;;;;14.37;7.20;;;10.30;99.90;;;;;;4437773;28;661153;-74
2023/04/22 06:07:15;;;;;;;13.60;6.87;;;10.70;99.90;;;;;;4434719;28;659459;-74
2023/04/22 06:10:04;;;;;;;15.33;7.07;;;10.90;99.90;;;;;;4437849;28;659514;-75
2023/04/22 06:12:51;;;;;;;16.60;7.53;;;11.10;99.90;;;;;;4412928;28;660356;-74
2023/04/22 06:15:38;;;;;;;20.90;7.13;;;11.30;99.90;;;;;;4436978;28;660337;-74
2023/04/22 06:18:26;;;;;;;13.87;6.30;;;11.60;99.90;;;;;;4414172;28;659929;-73
2023/04/22 06:21:13;;;;;;;11.10;6.10;;;11.90;99.90;;;;;;4445881;28;660359;-74
2023/04/22 06:24:00;;;;;;;11.40;5.93;;;12.00;99.90;;;;;;4260457;28;659360;-73
2023/04/22 06:26:49;;;;;;;14.40;5.90;;;12.30;99.90;;;;;;4254264;28;661623;-73
2023/04/22 06:29:36;;;;;;;11.70;5.73;;;12.50;99.30;;;;;;4317303;28;659619;-73
2023/04/22 06:32:23;;;;;;;14.37;6.37;;;12.70;98.20;;;;;;4437289;28;659923;-74
2023/04/22 06:35:11;;;;;;;12.10;6.50;;;12.80;97.30;;;;;;4416310;28;660121;-73
2023/04/22 06:37:58;;;;;;;11.67;6.23;;;13.00;95.20;;;;;;4442108;28;659994;-73
2023/04/22 06:40:45;;;;;;;12.47;6.10;;;13.20;95.00;;;;;;4418567;27;660238;-73
2023/04/22 06:43:34;;;;;;;10.50;6.60;;;13.30;94.60;;;;;;4438910;28;660280;-74
2023/04/22 06:46:21;;;;;;;12.05;7.22;;;13.50;98.00;;;;;;4412835;28;659650;-73
2023/04/22 06:49:08;;;;;;;13.67;7.20;;;13.70;93.80;;;;;;4437399;28;660163;-74
2023/04/22 06:51:55;;;;;;;22.50;7.33;;;13.90;92.60;;;;;;4418468;28;660253;-73
2023/04/22 06:54:42;;;;;;;13.90;7.33;;;14.00;92.70;;;;;;4442675;28;659850;-74
2023/04/22 06:57:30;;;;;;;13.50;7.70;;;14.20;91.20;;;;;;4435783;28;660251;-74
2023/04/22 07:00:19;;;;;;;15.67;7.33;;;14.40;93.10;;;;;;4432667;28;660481;-73
2023/04/22 07:03:06;;;;;;;12.57;7.07;;;14.60;90.80;;;;;;4419785;28;659613;-74
2023/04/22 07:05:53;;;;;;;19.85;7.82;;;14.70;88.80;;;;;;4436314;28;660281;-74
2023/04/22 07:08:41;;;;;;;16.40;6.80;;;14.90;85.50;;;;;;4418255;28;659973;-74
2023/04/22 07:11:30;;;;;;;12.10;6.17;;;15.00;81.90;;;;;;4436836;28;660225;-74
2023/04/22 07:14:17;;;;;;;18.33;7.30;;;15.10;79.10;;;;;;4412600;28;660782;-74
2023/04/22 07:17:05;;;;;;;13.97;7.40;;;15.20;77.70;;;;;;4433658;28;659714;-75
2023/04/22 07:19:53;;;;;;;13.07;5.53;;;15.40;79.90;;;;;;4415870;28;660347;-74
2023/04/22 07:22:40;;;;;;;12.30;5.70;;;15.70;73.10;;;;;;4410950;28;660032;-74
2023/04/22 07:25:27;;;;;;;11.43;5.60;;;15.90;68.80;;;;;;4430420;28;660375;-74
2023/04/22 07:28:15;;;;;;;8.90;5.27;;;16.20;65.80;;;;;;4433166;28;660103;-74
2023/04/22 07:31:02;;;;;;;11.03;5.43;;;16.40;68.90;;;;;;4434359;28;660571;-75
2023/04/22 07:33:52;;;;;;;9.27;4.83;;;16.40;70.80;;;;;;4438157;28;659868;-74
2023/04/22 07:36:39;;;;;;;10.67;4.70;;;16.50;61.00;;;;;;4440360;28;658879;-74
2023/04/22 07:39:26;;;;;;;17.07;5.03;;;16.60;55.60;;;;;;4417135;28;659890;-75
2023/04/22 07:42:13;;;;;;;10.67;5.40;;;16.70;55.00;;;;;;4440470;28;660372;-74
2023/04/22 07:45:01;;;;;;;8.67;4.83;;;16.80;52.30;;;;;;4426940;28;659786;-74
2023/04/22 07:47:48;;;;;;;12.97;5.03;;;16.80;54.60;;;;;;4451725;28;659782;-75
2023/04/22 07:50:37;;;;;;;6.67;4.53;;;16.90;54.10;;;;;;4419022;28;660469;-73
2023/04/22 07:53:24;;;;;;;7.13;4.17;;;17.10;49.90;;;;;;4450294;27;658542;-74
2023/04/22 07:56:11;;;;;;;9.93;4.93;;;17.10;53.40;;;;;;4420974;28;659144;-74
2023/04/22 07:58:58;;;;;;;12.90;4.90;;;17.30;53.70;;;;;;4439358;28;659843;-74
2023/04/22 08:01:46;;;;;;;8.90;4.70;;;17.40;53.50;;;;;;4420029;28;661616;-74
2023/04/22 08:04:33;;;;;;;6.93;4.43;;;17.50;50.00;;;;;;4444879;28;659102;-74
2023/04/22 08:07:22;;;;;;;7.10;4.37;;;17.70;48.60;;;;;;4424083;28;658635;-74
2023/04/22 08:10:10;;;;;;;10.53;4.20;;;17.60;49.30;;;;;;4443815;28;658139;-73
2023/04/22 08:12:57;;;;;;;7.97;4.30;;;17.70;46.10;;;;;;4429947;28;660181;-74
2023/04/22 08:15:44;;;;;;;7.77;4.20;;;17.80;47.50;;;;;;4457166;28;659713;-75
2023/04/22 08:18:31;;;;;;;6.77;4.43;;;17.90;48.10;;;;;;4434620;28;659038;-74
2023/04/22 08:21:18;;;;;;;9.77;4.10;;;18.10;48.80;;;;;;4456733;28;659132;-74
2023/04/22 08:24:08;;;;;;;7.63;3.97;;;18.20;47.80;;;;;;4420561;28;658911;-74
2023/04/22 08:26:55;;;;;;;8.73;4.43;;;18.50;45.10;;;;;;4449036;28;658890;-74
2023/04/22 08:29:42;;;;;;;7.30;4.43;;;18.40;46.60;;;;;;4449309;28;658402;-74
2023/04/22 08:32:30;;;;;;;8.20;4.63;;;18.40;45.90;;;;;;4452081;27;658457;-75
2023/04/22 08:35:17;;;;;;;6.27;4.30;;;18.40;47.00;;;;;;4424561;28;658501;-75
2023/04/22 08:38:04;;;;;;;9.17;4.40;;;18.70;43.40;;;;;;4450095;28;658878;-74
2023/04/22 08:40:54;;;;;;;7.57;4.17;;;18.60;45.00;;;;;;4423940;28;659049;-74
2023/04/22 08:43:42;;;;;;;8.53;4.60;;;18.50;46.00;;;;;;4424366;28;658765;-74
2023/04/22 08:46:29;;;;;;;12.10;5.70;;;18.70;45.90;;;;;;4449658;28;658194;-74
2023/04/22 08:49:16;;;;;;;10.43;4.33;;;18.80;43.30;;;;;;4429107;28;660233;-74
2023/04/22 08:52:03;;;;;;;8.73;4.50;;;19.00;45.90;;;;;;4447470;28;661003;-75
2023/04/22 08:54:51;;;;;;;7.27;4.30;;;19.20;44.60;;;;;;4424087;28;658396;-75
2023/04/22 08:57:40;;;;;;;8.57;3.90;;;19.30;46.60;;;;;;4449577;28;659157;-74
2023/04/22 09:00:27;;;;;;;7.80;4.37;;;19.40;44.20;;;;;;4417172;28;659293;-74
2023/04/22 09:03:15;;;;;;;10.23;3.57;;;19.60;41.80;;;;;;4440161;28;658856;-74
2023/04/22 09:06:05;;;;;;;7.93;4.33;;;19.70;43.50;;;;;;4444391;28;659642;-74
2023/04/22 09:08:52;;;;;;;7.27;4.07;;;19.80;41.80;;;;;;4415876;28;659041;-74
2023/04/22 09:11:39;;;;;;;8.60;4.07;;;19.40;42.90;;;;;;4446106;28;658203;-74
2023/04/22 09:14:28;;;;;;;12.37;4.40;;;19.50;45.30;;;;;;4421802;28;658726;-74
2023/04/22 09:17:16;;;;;;;12.10;4.57;;;19.90;42.00;;;;;;4433643;28;659715;-74
2023/04/22 09:20:04;;;;;;;9.87;4.03;;;20.10;42.70;;;;;;4442469;28;660988;-74
2023/04/22 09:22:52;;;;;;;6.63;4.20;;;20.00;38.80;;;;;;4434338;28;658262;-74
2023/04/22 09:25:39;;;;;;;9.43;4.23;;;19.80;42.40;;;;;;4442411;28;659184;-74
2023/04/22 09:28:26;;;;;;;6.73;4.40;;;20.20;42.20;;;;;;4437744;28;658753;-74
2023/04/22 09:31:15;;;;;;;8.17;3.80;;;20.60;44.30;;;;;;4450872;28;659913;-74
2023/04/22 09:34:02;;;;;;;14.07;4.50;;;20.90;40.90;;;;;;4428079;28;659764;-74
2023/04/22 09:36:50;;;;;;;10.40;4.83;;;20.70;40.20;;;;;;4452242;28;659948;-75
2023/04/22 09:39:38;;;;;;;9.10;4.47;;;20.90;39.50;;;;;;4421968;28;660107;-74
2023/04/22 09:42:25;;;;;;;8.07;4.53;;;20.70;38.20;;;;;;4438813;28;658735;-73
2023/04/22 09:45:12;;;;;;;6.67;4.20;;;19.30;40.00;;;;;;4449700;28;659551;-74
2023/04/22 09:48:04;;;;;;;8.80;4.40;;;19.90;42.60;;;;;;4433113;28;658865;-74
2023/04/22 09:50:51;;;;;;;9.27;4.60;;;20.70;42.50;;;;;;4416913;28;658712;-75
2023/04/22 09:53:38;;;;;;;7.73;4.07;;;20.90;40.00;;;;;;4450767;28;659471;-75
2023/04/22 09:56:47;;;;;;;10.57;4.53;;;20.70;38.90;;;;;;4415774;28;659098;-75
2023/04/22 09:59:34;;;;;;;5.73;3.97;;;20.80;42.20;;;;;;4411311;28;659810;-74
2023/04/22 10:02:28;;;;;;;12.73;4.40;;;20.90;39.30;;;;;;4418533;28;658591;-75
2023/04/22 10:05:17;;;;;;;11.63;4.27;;;21.30;43.10;;;;;;4391151;28;659922;-74
2023/04/22 10:08:06;;;;;;;7.27;4.10;;;21.70;39.00;;;;;;4437089;28;660521;-74
2023/04/22 10:10:54;;;;;;;6.80;3.90;;;21.80;38.20;;;;;;4441626;28;659542;-75
2023/04/22 10:13:41;;;;;;;7.13;4.37;;;22.10;38.60;;;;;;4435610;28;659129;-76
2023/04/22 10:16:30;;;;;;;6.18;3.70;;;21.70;38.30;;;;;;4451206;28;658936;-74
2023/04/22 10:19:19;;;;;;;7.27;4.07;;;21.80;39.90;;;;;;4434346;28;659778;-75
2023/04/22 10:22:09;;;;;;;6.37;3.97;;;21.60;37.40;;;;;;4427032;28;658769;-75
2023/04/22 10:24:57;;;;;;;6.87;3.83;;;22.00;37.70;;;;;;4427454;28;658397;-76
2023/04/22 10:27:44;;;;;;;5.03;2.80;;;22.30;36.20;;;;;;4452792;28;658174;-76
2023/04/22 10:30:32;;;;;;;18.70;9.83;;;22.10;37.70;;;;;;4427663;28;658974;-75
2023/04/22 10:33:38;;;;;;;7.13;3.70;;;22.20;38.90;;;;;;4456959;28;659896;-75
2023/04/22 10:36:26;;;;;;;6.57;3.60;;;22.40;37.60;;;;;;4422066;28;658848;-75
2023/04/22 10:39:20;;;;;;;5.33;2.83;;;22.60;35.40;;;;;;4437989;28;659956;-75
2023/04/22 10:42:11;;;;;;;5.27;3.40;;;22.50;32.70;;;;;;4420133;28;659176;-75
2023/04/22 10:45:01;;;;;;;13.30;4.40;;;22.20;36.70;;;;;;4418121;28;659547;-75
2023/04/22 10:47:48;;;;;;;5.33;3.13;;;22.20;36.30;;;;;;4424553;28;659871;-74
2023/04/22 10:50:36;;;;;;;4.97;3.00;;;22.10;34.20;;;;;;4424630;28;658190;-75
2023/04/22 10:53:36;;;;;;;7.00;3.27;;;21.90;37.70;;;;;;4458367;28;659472;-75
2023/04/22 10:56:25;;;;;;;7.53;3.87;;;22.20;38.00;;;;;;4410965;28;659240;-75
2023/04/22 10:59:16;;;;;;;4.77;2.97;;;22.50;35.30;;;;;;4419605;28;660686;-74
2023/04/22 11:02:03;;;;;;;4.97;2.97;;;22.20;33.00;;;;;;4413675;28;659544;-74
2023/04/22 11:04:51;;;;;;;5.83;3.47;;;22.00;34.10;;;;;;4421018;28;658995;-75
2023/04/22 11:07:39;;;;;;;8.23;3.87;;;22.30;34.90;;;;;;4438973;28;659714;-74
2023/04/22 11:10:34;;;;;;;9.17;3.67;;;22.50;34.00;;;;;;4430591;28;658519;-74
2023/04/22 11:13:23;;;;;;;4.60;2.70;;;22.70;31.10;;;;;;4421875;28;659119;-74
2023/04/22 11:16:10;;;;;;;5.22;2.05;;;23.20;37.50;;;;;;4423790;28;659166;-75
2023/04/22 11:18:58;;;;;;;8.27;3.50;;;23.50;32.80;;;;;;4429304;28;659769;-74
2023/04/22 11:21:45;;;;;;;6.47;4.57;;;23.50;33.40;;;;;;4441814;28;658454;-73
2023/04/22 11:24:32;;;;;;;6.23;4.23;;;22.60;31.70;;;;;;4438685;28;659034;-74
2023/04/22 11:27:25;;;;;;;10.20;4.80;;;22.20;36.10;;;;;;4432513;28;659333;-74
2023/04/22 11:30:15;;;;;;;8.17;4.70;;;22.60;36.80;;;;;;4421894;28;660379;-75
2023/04/22 11:33:02;;;;;;;7.00;4.60;;;22.70;36.50;;;;;;4426533;28;659936;-74
2023/04/22 11:35:50;;;;;;;10.77;6.33;;;22.60;33.70;;;;;;4453845;28;658423;-75
2023/04/22 11:38:37;;;;;;;8.20;5.17;;;22.70;35.00;;;;;;4422766;28;660517;-75
2023/04/22 11:41:24;;;;;;;9.00;4.30;;;22.70;33.60;;;;;;4443248;28;658264;-75
2023/04/22 11:44:14;;;;;;;6.33;4.20;;;22.80;33.70;;;;;;4418661;28;658831;-75
2023/04/22 11:47:03;;;;;;;5.90;4.50;;;22.50;32.40;;;;;;4426176;28;659983;-74
2023/04/22 11:49:57;;;;;;;9.47;3.87;;;22.70;99.90;;;;;;4425539;28;658983;-73
2023/04/22 11:52:46;;;;;;;8.90;3.93;;;23.00;99.90;;;;;;4411651;28;658448;-73
2023/04/22 11:55:34;;;;;;;6.70;4.17;;;23.20;99.90;;;;;;4410053;28;659008;-76
2023/04/22 11:58:25;;;;;;;5.57;3.80;;;23.20;99.90;;;;;;4423775;28;659104;-76
2023/04/22 12:01:13;;;;;;;6.73;4.37;;;23.60;99.90;;;;;;4406026;28;659870;-74
2023/04/22 12:04:02;;;;;;;8.30;4.60;;;23.70;99.90;;;;;;4417923;28;658879;-75
2023/04/22 12:06:49;;;;;;;8.90;5.10;;;23.20;99.90;;;;;;4444866;28;658374;-75
2023/04/22 12:09:37;;;;;;;7.97;5.20;;;22.90;99.90;;;;;;4433944;28;658574;-75
2023/04/22 12:12:25;;;;;;;11.63;4.73;;;23.10;99.90;;;;;;4453893;28;658522;-75
2023/04/22 12:15:13;;;;;;;6.13;4.53;;;23.20;99.90;;;;;;4422002;28;660455;-74
2023/04/22 12:18:02;;;;;;;10.30;4.70;;;23.50;99.90;;;;;;4418637;28;658219;-73
2023/04/22 12:20:50;;;;;;;8.80;4.17;;;23.70;99.90;;;;;;4453518;28;660341;-74
2023/04/22 12:23:42;;;;;;;8.53;4.73;;;23.30;99.90;;;;;;4416898;28;659492;-75
2023/04/22 12:26:29;;;;;;;6.63;4.20;;;22.90;99.90;;;;;;4248045;28;659042;-74
2023/04/22 12:29:16;;;;;;;7.63;4.57;;;23.20;99.90;;;;;;4262542;28;658911;-74
2023/04/22 12:32:03;;;;;;;8.93;4.60;;;23.80;99.90;;;;;;4379563;28;658764;-75
2023/04/22 12:34:51;;;;;;;8.40;4.57;;;24.00;99.90;;;;;;4418327;28;658676;-75
2023/04/22 12:37:40;;;;;;;8.90;4.73;;;24.00;99.90;;;;;;4432478;28;659997;-75
2023/04/22 12:40:27;;;;;;;7.23;4.50;;;23.80;99.90;;;;;;4412456;28;660375;-74
2023/04/22 12:43:14;;;;;;;12.63;7.03;;;23.50;99.90;;;;;;4443664;28;658695;-75
2023/04/22 12:46:01;;;;;;;13.87;5.60;;;23.80;99.90;;;;;;4409271;28;659729;-75
2023/04/22 12:48:48;;;;;;;10.03;5.50;;;24.00;99.90;;;;;;4435396;28;659829;-75
2023/04/22 12:51:36;;;;;;;7.97;5.03;;;24.30;99.90;;;;;;4435621;27;659897;-75
2023/04/22 12:54:24;;;;;;;12.52;5.13;;;23.90;99.90;;;;;;4457100;28;659723;-76
2023/04/22 12:57:12;;;;;;;9.68;4.78;;;24.70;99.90;;;;;;4425609;28;659400;-74
2023/04/22 12:59:59;;;;;;;12.55;5.28;;;25.30;99.90;;;;;;4434142;28;658770;-74
2023/04/22 13:02:47;;;;;;;6.60;4.80;;;24.80;99.90;;;;;;4414708;28;659892;-75
2023/04/22 13:05:34;;;;;;;7.03;4.68;;;24.50;99.90;;;;;;4442895;28;659381;-75
2023/04/22 13:08:22;;;;;;;7.87;5.07;;;24.00;99.90;;;;;;4435279;28;659329;-75
2023/04/22 13:11:10;;;;;;;9.87;4.83;;;24.00;99.90;;;;;;4438875;28;658260;-76
2023/04/22 13:13:57;;;;;;;12.63;4.90;;;23.80;99.90;;;;;;4421704;28;658213;-76
2023/04/22 13:16:45;;;;;;;7.73;4.20;;;23.00;99.90;;;;;;4443372;28;661010;-75
2023/04/22 13:19:34;;;;;;;6.83;4.20;;;23.50;99.90;;;;;;4407252;28;659768;-75
2023/04/22 13:22:21;;;;;;;5.57;3.83;;;23.80;99.90;;;;;;4412887;28;658784;-75
2023/04/22 13:25:09;;;;;;;10.10;4.03;;;23.70;99.90;;;;;;4437774;28;659568;-75
2023/04/22 13:27:58;;;;;;;7.22;4.05;;;24.30;99.90;;;;;;4417450;28;660636;-75
2023/04/22 13:30:45;;;;;;;8.32;4.07;;;25.30;99.90;;;;;;4440769;28;658878;-75
2023/04/22 13:33:32;;;;;;;8.55;4.05;;;26.10;99.90;;;;;;4438281;28;659956;-75
2023/04/22 13:36:20;;;;;;;6.90;3.97;;;26.30;99.90;;;;;;4432583;28;658773;-75
2023/04/22 13:39:08;;;;;;;8.02;4.25;;;25.40;99.90;;;;;;4436435;28;659631;-75
2023/04/22 13:41:55;;;;;;;8.55;4.10;;;25.00;99.90;;;;;;4434062;28;658634;-75
2023/04/22 13:44:44;;;;;;;7.65;4.20;;;24.90;99.90;;;;;;4441836;28;659236;-75
2023/04/22 13:47:31;;;;;;;5.60;3.67;;;25.10;99.90;;;;;;4432073;28;658798;-75
2023/04/22 13:50:18;;;;;;;6.53;4.07;;;25.40;99.90;;;;;;4434629;28;659382;-75
2023/04/22 13:53:08;;;;;;;8.80;4.18;;;25.70;99.90;;;;;;4415142;28;658528;-75
2023/04/22 13:55:56;;;;;;;8.95;3.83;;;25.80;99.90;;;;;;4430643;28;658749;-75
2023/04/22 13:58:43;;;;;;;8.75;3.95;;;25.50;99.90;;;;;;4462264;28;659321;-75
2023/04/22 14:01:33;;;;;;;8.18;4.10;;;25.50;99.90;;;;;;4422659;28;658310;-75
2023/04/22 14:04:20;;;;;;;6.13;4.10;;;26.00;99.90;;;;;;4437718;28;658727;-74
2023/04/22 14:07:07;;;;;;;7.47;3.85;;;25.40;99.90;;;;;;4445264;28;660436;-75
2023/04/22 14:09:55;;;;;;;6.25;4.20;;;25.50;99.90;;;;;;4451451;28;658926;-75
2023/04/22 14:12:43;;;;;;;6.03;3.75;;;26.30;99.90;;;;;;4441307;28;658878;-75
2023/04/22 14:15:30;;;;;;;5.15;3.65;;;26.90;99.90;;;;;;4421395;28;659817;-75
2023/04/22 14:18:20;;;;;;;9.00;3.90;;;25.50;99.90;;;;;;4452197;28;659706;-74
2023/04/22 14:21:09;;;;;;;6.65;3.97;;;26.00;99.90;;;;;;4435321;28;659145;-75
2023/04/22 14:23:56;;;;;;;6.78;3.72;;;26.00;99.90;;;;;;4431148;28;658557;-75
2023/04/22 14:26:43;;;;;;;5.75;3.78;;;25.50;99.90;;;;;;4435152;28;659222;-74